sensor_id;sensor_type;location;lat;lon;timestamp;pressure;altitude;pressure_sealevel;temperature;humidity
63339;BME280;47485;51.378;-1.342;2022-11-06T00:01:10;99411.92;;;11.85;35.27
63339;BME280;47485;51.378;-1.342;2022-11-06T00:03:38;99413.45;;;13.62;34.95
63339;BME280;47485;51.378;-1.342;2022-11-06T00:06:05;99412.98;;;14.05;34.29
63339;BME280;47485;51.378;-1.342;2022-11-06T00:08:34;99408.19;;;11.26;36.42
63339;BME280;47485;51.378;-1.342;2022-11-06T00:11:07;99409.40;;;13.11;34.36
63339;BME280;47485;51.378;-1.342;2022-11-06T00:13:35;99404.13;;;14.06;33.13
63339;BME280;47485;51.378;-1.342;2022-11-06T00:16:03;99402.12;;;15.18;32.13
63339;BME280;47485;51.378;-1.342;2022-11-06T00:18:30;99399.76;;;13.23;32.42
63339;BME280;47485;51.378;-1.342;2022-11-06T00:20:57;99392.17;;;12.74;34.04
63339;BME280;47485;51.378;-1.342;2022-11-06T00:23:23;99382.55;;;13.88;33.27
63339;BME280;47485;51.378;-1.342;2022-11-06T00:25:50;99374.50;;;13.64;32.73
63339;BME280;47485;51.378;-1.342;2022-11-06T00:28:17;99374.28;;;14.16;31.99
63339;BME280;47485;51.378;-1.342;2022-11-06T00:30:44;99370.67;;;12.96;32.21
63339;BME280;47485;51.378;-1.342;2022-11-06T00:33:11;99362.91;;;13.64;31.54
63339;BME280;47485;51.378;-1.342;2022-11-06T00:35:38;99362.67;;;15.44;31.24
63339;BME280;47485;51.378;-1.342;2022-11-06T00:38:05;99360.46;;;15.03;31.06
63339;BME280;47485;51.378;-1.342;2022-11-06T00:40:32;99353.46;;;15.06;30.22
63339;BME280;47485;51.378;-1.342;2022-11-06T00:42:59;99357.80;;;13.08;32.68
63339;BME280;47485;51.378;-1.342;2022-11-06T00:45:26;99356.26;;;16.02;30.53
63339;BME280;47485;51.378;-1.342;2022-11-06T00:47:53;99350.29;;;17.10;30.49
63339;BME280;47485;51.378;-1.342;2022-11-06T00:50:20;99343.09;;;16.81;30.19
63339;BME280;47485;51.378;-1.342;2022-11-06T00:52:46;99341.29;;;16.05;30.92
63339;BME280;47485;51.378;-1.342;2022-11-06T00:55:13;99337.85;;;15.32;30.71
63339;BME280;47485;51.378;-1.342;2022-11-06T00:57:40;99333.60;;;15.64;30.84
63339;BME280;47485;51.378;-1.342;2022-11-06T01:00:08;99331.17;;;17.05;29.64
63339;BME280;47485;51.378;-1.342;2022-11-06T01:02:34;99334.23;;;18.68;29.95
63339;BME280;47485;51.378;-1.342;2022-11-06T01:05:01;99341.60;;;16.53;31.73
63339;BME280;47485;51.378;-1.342;2022-11-06T01:07:28;99326.15;;;13.46;35.08
63339;BME280;47485;51.378;-1.342;2022-11-06T01:09:55;99332.60;;;15.88;32.06
63339;BME280;47485;51.378;-1.342;2022-11-06T01:12:22;99336.67;;;16.39;32.84
63339;BME280;47485;51.378;-1.342;2022-11-06T01:14:49;99326.15;;;12.83;35.17
63339;BME280;47485;51.378;-1.342;2022-11-06T01:17:15;99334.63;;;15.78;32.76
63339;BME280;47485;51.378;-1.342;2022-11-06T01:19:42;99326.24;;;13.88;34.19
63339;BME280;47485;51.378;-1.342;2022-11-06T01:22:09;99326.64;;;17.24;31.75
63339;BME280;47485;51.378;-1.342;2022-11-06T01:24:35;99315.79;;;12.66;34.57
63339;BME280;47485;51.378;-1.342;2022-11-06T01:27:02;99326.13;;;14.67;32.38
63339;BME280;47485;51.378;-1.342;2022-11-06T01:29:29;99320.50;;;14.14;32.61
63339;BME280;47485;51.378;-1.342;2022-11-06T01:31:56;99307.41;;;13.82;33.04
63339;BME280;47485;51.378;-1.342;2022-11-06T01:34:23;99304.53;;;14.02;32.70
63339;BME280;47485;51.378;-1.342;2022-11-06T01:36:50;99290.89;;;13.40;31.95
63339;BME280;47485;51.378;-1.342;2022-11-06T01:39:17;99286.54;;;14.57;31.52
63339;BME280;47485;51.378;-1.342;2022-11-06T01:41:46;99289.56;;;14.57;31.11
63339;BME280;47485;51.378;-1.342;2022-11-06T01:45:34;99289.45;;;14.26;30.73
63339;BME280;47485;51.378;-1.342;2022-11-06T01:48:23;99284.60;;;13.46;31.76
63339;BME280;47485;51.378;-1.342;2022-11-06T01:50:55;99281.47;;;17.13;29.61
63339;BME280;47485;51.378;-1.342;2022-11-06T01:53:24;99282.08;;;15.95;30.26
63339;BME280;47485;51.378;-1.342;2022-11-06T01:55:53;99277.37;;;18.26;29.08
63339;BME280;47485;51.378;-1.342;2022-11-06T01:58:23;99275.04;;;18.08;29.61
63339;BME280;47485;51.378;-1.342;2022-11-06T02:00:51;99290.83;;;15.59;32.91
63339;BME280;47485;51.378;-1.342;2022-11-06T02:03:18;99280.38;;;14.58;34.53
63339;BME280;47485;51.378;-1.342;2022-11-06T02:05:45;99273.77;;;16.22;32.58
63339;BME280;47485;51.378;-1.342;2022-11-06T02:08:15;99265.87;;;12.19;35.09
63339;BME280;47485;51.378;-1.342;2022-11-06T02:10:43;99255.33;;;15.27;33.30
63339;BME280;47485;51.378;-1.342;2022-11-06T02:13:17;99259.07;;;14.57;35.93
63339;BME280;47485;51.378;-1.342;2022-11-06T02:15:49;99270.25;;;12.23;38.47
63339;BME280;47485;51.378;-1.342;2022-11-06T02:18:26;99268.67;;;13.14;38.85
63339;BME280;47485;51.378;-1.342;2022-11-06T02:21:12;99253.62;;;13.01;37.40
63339;BME280;47485;51.378;-1.342;2022-11-06T02:23:56;99241.50;;;10.92;37.77
63339;BME280;47485;51.378;-1.342;2022-11-06T02:26:46;99246.03;;;12.89;34.60
63339;BME280;47485;51.378;-1.342;2022-11-06T02:29:19;99250.56;;;14.62;34.27
63339;BME280;47485;51.378;-1.342;2022-11-06T02:31:51;99247.00;;;15.77;33.33
63339;BME280;47485;51.378;-1.342;2022-11-06T02:34:23;99242.26;;;11.73;34.77
63339;BME280;47485;51.378;-1.342;2022-11-06T02:36:55;99239.93;;;12.52;34.10
63339;BME280;47485;51.378;-1.342;2022-11-06T02:39:26;99239.63;;;16.22;31.58
63339;BME280;47485;51.378;-1.342;2022-11-06T02:41:56;99233.15;;;12.47;34.77
63339;BME280;47485;51.378;-1.342;2022-11-06T02:44:26;99230.76;;;15.10;31.80
63339;BME280;47485;51.378;-1.342;2022-11-06T02:46:55;99221.54;;;12.28;33.42
63339;BME280;47485;51.378;-1.342;2022-11-06T02:49:30;99226.83;;;14.95;31.41
63339;BME280;47485;51.378;-1.342;2022-11-06T02:52:02;99230.04;;;13.37;32.37
63339;BME280;47485;51.378;-1.342;2022-11-06T02:54:34;99219.35;;;16.70;30.83
63339;BME280;47485;51.378;-1.342;2022-11-06T02:57:06;99220.27;;;12.65;32.66
63339;BME280;47485;51.378;-1.342;2022-11-06T02:59:41;99216.96;;;9.61;34.31
63339;BME280;47485;51.378;-1.342;2022-11-06T03:02:15;99214.37;;;13.37;31.62
63339;BME280;47485;51.378;-1.342;2022-11-06T03:04:47;99209.02;;;16.37;29.92
63339;BME280;47485;51.378;-1.342;2022-11-06T03:07:20;99202.70;;;16.51;30.49
63339;BME280;47485;51.378;-1.342;2022-11-06T03:09:48;99204.62;;;12.96;31.74
63339;BME280;47485;51.378;-1.342;2022-11-06T03:12:20;99203.06;;;13.63;32.65
63339;BME280;47485;51.378;-1.342;2022-11-06T03:14:53;99198.35;;;14.08;32.10
63339;BME280;47485;51.378;-1.342;2022-11-06T03:17:30;99192.46;;;14.96;31.73
63339;BME280;47485;51.378;-1.342;2022-11-06T03:20:14;99188.59;;;15.71;31.78
63339;BME280;47485;51.378;-1.342;2022-11-06T03:22:45;99188.65;;;14.08;33.42
63339;BME280;47485;51.378;-1.342;2022-11-06T03:25:19;99187.66;;;14.78;32.81
63339;BME280;47485;51.378;-1.342;2022-11-06T03:27:51;99186.10;;;12.36;35.23
63339;BME280;47485;51.378;-1.342;2022-11-06T03:30:21;99180.68;;;15.11;34.11
63339;BME280;47485;51.378;-1.342;2022-11-06T03:32:49;99176.08;;;13.77;34.69
63339;BME280;47485;51.378;-1.342;2022-11-06T03:35:22;99168.10;;;8.20;38.14
63339;BME280;47485;51.378;-1.342;2022-11-06T03:37:54;99171.08;;;11.60;34.93
63339;BME280;47485;51.378;-1.342;2022-11-06T03:40:25;99165.84;;;13.41;32.91
63339;BME280;47485;51.378;-1.342;2022-11-06T03:42:54;99164.83;;;12.70;33.67
63339;BME280;47485;51.378;-1.342;2022-11-06T03:45:25;99159.00;;;10.03;34.57
63339;BME280;47485;51.378;-1.342;2022-11-06T03:47:55;99160.41;;;16.29;31.55
63339;BME280;47485;51.378;-1.342;2022-11-06T03:50:28;99158.95;;;15.16;31.60
63339;BME280;47485;51.378;-1.342;2022-11-06T03:53:03;99162.57;;;13.91;32.94
63339;BME280;47485;51.378;-1.342;2022-11-06T03:55:37;99159.59;;;11.96;33.82
63339;BME280;47485;51.378;-1.342;2022-11-06T03:58:08;99158.70;;;11.38;33.73
63339;BME280;47485;51.378;-1.342;2022-11-06T04:00:39;99147.77;;;11.23;33.47
63339;BME280;47485;51.378;-1.342;2022-11-06T04:03:12;99133.36;;;12.27;32.41
63339;BME280;47485;51.378;-1.342;2022-11-06T04:05:44;99127.09;;;13.75;31.36
63339;BME280;47485;51.378;-1.342;2022-11-06T04:08:13;99129.84;;;13.88;31.25
63339;BME280;47485;51.378;-1.342;2022-11-06T04:10:44;99133.64;;;15.76;30.26
63339;BME280;47485;51.378;-1.342;2022-11-06T04:13:12;99134.05;;;13.18;31.06
63339;BME280;47485;51.378;-1.342;2022-11-06T04:15:41;99130.09;;;12.40;32.21
63339;BME280;47485;51.378;-1.342;2022-11-06T04:18:11;99123.58;;;14.97;30.63
63339;BME280;47485;51.378;-1.342;2022-11-06T04:20:46;99123.19;;;14.60;31.33
63339;BME280;47485;51.378;-1.342;2022-11-06T04:23:23;99115.19;;;11.87;32.16
63339;BME280;47485;51.378;-1.342;2022-11-06T04:25:58;99120.89;;;15.48;29.72
63339;BME280;47485;51.378;-1.342;2022-11-06T04:29:01;99121.54;;;13.58;31.58
63339;BME280;47485;51.378;-1.342;2022-11-06T04:31:34;99119.83;;;14.19;31.42
63339;BME280;47485;51.378;-1.342;2022-11-06T04:34:07;99110.73;;;14.61;30.96
63339;BME280;47485;51.378;-1.342;2022-11-06T04:36:41;99101.05;;;13.48;31.50
63339;BME280;47485;51.378;-1.342;2022-11-06T04:39:13;99092.46;;;13.77;31.21
63339;BME280;47485;51.378;-1.342;2022-11-06T04:41:47;99088.75;;;14.01;31.80
63339;BME280;47485;51.378;-1.342;2022-11-06T04:44:23;99088.07;;;13.84;31.73
63339;BME280;47485;51.378;-1.342;2022-11-06T04:46:57;99078.57;;;13.57;31.93
63339;BME280;47485;51.378;-1.342;2022-11-06T04:49:26;99069.06;;;14.46;31.07
63339;BME280;47485;51.378;-1.342;2022-11-06T04:51:56;99075.37;;;15.58;30.72
63339;BME280;47485;51.378;-1.342;2022-11-06T04:54:23;99095.17;;;15.89;30.96
63339;BME280;47485;51.378;-1.342;2022-11-06T04:56:50;99105.51;;;12.10;35.52
63339;BME280;47485;51.378;-1.342;2022-11-06T04:59:17;99085.42;;;10.70;34.99
63339;BME280;47485;51.378;-1.342;2022-11-06T05:01:45;99082.87;;;12.01;34.23
63339;BME280;47485;51.378;-1.342;2022-11-06T05:04:11;99073.08;;;10.42;36.27
63339;BME280;47485;51.378;-1.342;2022-11-06T05:06:38;99074.92;;;12.82;35.53
63339;BME280;47485;51.378;-1.342;2022-11-06T05:09:05;99073.01;;;13.32;35.11
63339;BME280;47485;51.378;-1.342;2022-11-06T05:11:32;99075.88;;;11.78;35.63
63339;BME280;47485;51.378;-1.342;2022-11-06T05:13:58;99073.50;;;13.76;34.69
63339;BME280;47485;51.378;-1.342;2022-11-06T05:16:25;99059.51;;;11.24;37.35
63339;BME280;47485;51.378;-1.342;2022-11-06T05:18:52;99065.44;;;9.45;37.68
63339;BME280;47485;51.378;-1.342;2022-11-06T05:21:18;99078.72;;;13.34;34.72
63339;BME280;47485;51.378;-1.342;2022-11-06T05:23:45;99084.48;;;11.61;36.34
63339;BME280;47485;51.378;-1.342;2022-11-06T05:26:12;99072.03;;;12.60;35.14
63339;BME280;47485;51.378;-1.342;2022-11-06T05:28:40;99058.25;;;12.92;34.61
63339;BME280;47485;51.378;-1.342;2022-11-06T05:31:07;99054.16;;;13.74;33.33
63339;BME280;47485;51.378;-1.342;2022-11-06T05:33:34;99040.59;;;12.39;34.59
63339;BME280;47485;51.378;-1.342;2022-11-06T05:36:01;99034.17;;;13.48;34.81
63339;BME280;47485;51.378;-1.342;2022-11-06T05:38:30;99038.65;;;12.60;35.56
63339;BME280;47485;51.378;-1.342;2022-11-06T05:40:56;99033.69;;;13.79;33.62
63339;BME280;47485;51.378;-1.342;2022-11-06T05:43:24;99034.59;;;11.97;33.84
63339;BME280;47485;51.378;-1.342;2022-11-06T05:45:51;99040.47;;;14.39;32.79
63339;BME280;47485;51.378;-1.342;2022-11-06T05:48:18;99034.50;;;12.01;35.09
63339;BME280;47485;51.378;-1.342;2022-11-06T05:50:45;99035.92;;;14.04;33.05
63339;BME280;47485;51.378;-1.342;2022-11-06T05:53:11;99044.66;;;14.26;32.86
63339;BME280;47485;51.378;-1.342;2022-11-06T05:55:38;99051.26;;;13.43;33.45
63339;BME280;47485;51.378;-1.342;2022-11-06T05:58:04;99045.46;;;14.48;33.31
63339;BME280;47485;51.378;-1.342;2022-11-06T06:00:31;99023.05;;;10.62;36.47
63339;BME280;47485;51.378;-1.342;2022-11-06T06:02:58;99024.06;;;13.68;34.93
63339;BME280;47485;51.378;-1.342;2022-11-06T06:05:25;99012.70;;;13.37;33.41
63339;BME280;47485;51.378;-1.342;2022-11-06T06:07:51;99011.40;;;12.06;34.37
63339;BME280;47485;51.378;-1.342;2022-11-06T06:10:18;99010.60;;;11.45;36.42
63339;BME280;47485;51.378;-1.342;2022-11-06T06:12:45;99002.76;;;11.26;35.93
63339;BME280;47485;51.378;-1.342;2022-11-06T06:15:11;98996.90;;;12.79;34.89
63339;BME280;47485;51.378;-1.342;2022-11-06T06:17:38;98989.51;;;12.26;35.13
63339;BME280;47485;51.378;-1.342;2022-11-06T06:20:06;98983.98;;;14.33;32.55
63339;BME280;47485;51.378;-1.342;2022-11-06T06:22:33;98980.75;;;13.08;34.09
63339;BME280;47485;51.378;-1.342;2022-11-06T06:25:00;98974.03;;;12.11;34.94
63339;BME280;47485;51.378;-1.342;2022-11-06T06:27:27;98972.36;;;11.26;35.68
63339;BME280;47485;51.378;-1.342;2022-11-06T06:29:54;98976.89;;;12.37;34.86
63339;BME280;47485;51.378;-1.342;2022-11-06T06:32:21;98979.40;;;12.57;34.63
63339;BME280;47485;51.378;-1.342;2022-11-06T06:34:47;98977.97;;;11.79;36.32
63339;BME280;47485;51.378;-1.342;2022-11-06T06:37:14;98968.21;;;13.34;34.43
63339;BME280;47485;51.378;-1.342;2022-11-06T06:39:40;98968.07;;;12.33;35.61
63339;BME280;47485;51.378;-1.342;2022-11-06T06:42:07;98953.63;;;14.87;33.85
63339;BME280;47485;51.378;-1.342;2022-11-06T06:44:34;98951.73;;;13.09;36.06
63339;BME280;47485;51.378;-1.342;2022-11-06T06:47:01;98948.60;;;8.87;38.72
63339;BME280;47485;51.378;-1.342;2022-11-06T06:49:28;98936.72;;;12.32;35.69
63339;BME280;47485;51.378;-1.342;2022-11-06T06:51:55;98932.17;;;9.91;36.72
63339;BME280;47485;51.378;-1.342;2022-11-06T06:54:22;98935.66;;;12.60;34.58
63339;BME280;47485;51.378;-1.342;2022-11-06T06:56:48;98940.43;;;11.29;34.80
63339;BME280;47485;51.378;-1.342;2022-11-06T06:59:15;98942.97;;;12.01;34.84
63339;BME280;47485;51.378;-1.342;2022-11-06T07:01:42;98937.64;;;13.05;33.23
63339;BME280;47485;51.378;-1.342;2022-11-06T07:04:09;98950.88;;;11.24;34.68
63339;BME280;47485;51.378;-1.342;2022-11-06T07:06:36;98949.11;;;13.55;33.75
63339;BME280;47485;51.378;-1.342;2022-11-06T07:09:03;98947.90;;;11.81;33.99
63339;BME280;47485;51.378;-1.342;2022-11-06T07:11:30;98945.91;;;14.54;33.18
63339;BME280;47485;51.378;-1.342;2022-11-06T07:13:57;98954.53;;;13.18;33.49
63339;BME280;47485;51.378;-1.342;2022-11-06T07:16:25;98960.14;;;12.39;35.28
63339;BME280;47485;51.378;-1.342;2022-11-06T07:18:52;98961.05;;;11.88;34.57
63339;BME280;47485;51.378;-1.342;2022-11-06T07:21:18;98953.64;;;11.24;37.06
63339;BME280;47485;51.378;-1.342;2022-11-06T07:23:45;98957.13;;;10.09;36.55
63339;BME280;47485;51.378;-1.342;2022-11-06T07:26:11;98950.37;;;11.15;35.30
63339;BME280;47485;51.378;-1.342;2022-11-06T07:28:38;98941.02;;;12.24;34.66
63339;BME280;47485;51.378;-1.342;2022-11-06T07:31:06;98922.56;;;11.69;35.29
63339;BME280;47485;51.378;-1.342;2022-11-06T07:33:34;98926.18;;;13.02;35.02
63339;BME280;47485;51.378;-1.342;2022-11-06T07:36:02;98931.64;;;12.48;34.76
63339;BME280;47485;51.378;-1.342;2022-11-06T07:38:30;98934.84;;;9.47;38.93
63339;BME280;47485;51.378;-1.342;2022-11-06T07:41:00;98929.22;;;8.85;39.62
63339;BME280;47485;51.378;-1.342;2022-11-06T07:43:28;98919.05;;;11.28;36.12
63339;BME280;47485;51.378;-1.342;2022-11-06T07:45:57;98912.21;;;11.39;35.86
63339;BME280;47485;51.378;-1.342;2022-11-06T07:48:25;98918.24;;;9.83;36.28
63339;BME280;47485;51.378;-1.342;2022-11-06T07:50:51;98914.97;;;9.77;36.01
63339;BME280;47485;51.378;-1.342;2022-11-06T07:53:18;98915.62;;;8.22;37.39
63339;BME280;47485;51.378;-1.342;2022-11-06T07:55:49;98916.16;;;11.64;35.63
63339;BME280;47485;51.378;-1.342;2022-11-06T07:58:17;98915.74;;;9.61;36.80
63339;BME280;47485;51.378;-1.342;2022-11-06T08:00:46;98912.82;;;13.49;33.89
63339;BME280;47485;51.378;-1.342;2022-11-06T08:03:13;98918.41;;;11.39;35.06
63339;BME280;47485;51.378;-1.342;2022-11-06T08:05:40;98925.66;;;10.39;36.00
63339;BME280;47485;51.378;-1.342;2022-11-06T08:08:06;98922.87;;;8.25;39.33
63339;BME280;47485;51.378;-1.342;2022-11-06T08:10:33;98915.44;;;11.35;36.26
63339;BME280;47485;51.378;-1.342;2022-11-06T08:13:00;98911.67;;;7.57;39.26
63339;BME280;47485;51.378;-1.342;2022-11-06T08:15:27;98904.90;;;9.74;37.81
63339;BME280;47485;51.378;-1.342;2022-11-06T08:17:54;98900.46;;;10.31;37.27
63339;BME280;47485;51.378;-1.342;2022-11-06T08:20:21;98902.66;;;9.74;38.30
63339;BME280;47485;51.378;-1.342;2022-11-06T08:22:47;98895.08;;;7.24;39.73
63339;BME280;47485;51.378;-1.342;2022-11-06T08:25:15;98894.03;;;11.22;37.71
63339;BME280;47485;51.378;-1.342;2022-11-06T08:27:41;98894.90;;;10.93;37.07
63339;BME280;47485;51.378;-1.342;2022-11-06T08:30:09;98896.97;;;8.89;38.41
63339;BME280;47485;51.378;-1.342;2022-11-06T08:32:37;98900.01;;;9.68;36.75
63339;BME280;47485;51.378;-1.342;2022-11-06T08:35:06;98895.71;;;8.35;40.38
63339;BME280;47485;51.378;-1.342;2022-11-06T08:37:35;98886.29;;;7.34;40.36
63339;BME280;47485;51.378;-1.342;2022-11-06T08:40:02;98879.87;;;11.54;35.63
63339;BME280;47485;51.378;-1.342;2022-11-06T08:43:09;98879.91;;;10.35;36.37
63339;BME280;47485;51.378;-1.342;2022-11-06T08:45:38;98883.90;;;7.78;40.51
63339;BME280;47485;51.378;-1.342;2022-11-06T08:48:06;98894.15;;;8.22;41.41
63339;BME280;47485;51.378;-1.342;2022-11-06T08:50:35;98885.07;;;10.57;38.41
63339;BME280;47485;51.378;-1.342;2022-11-06T08:53:03;98877.87;;;8.03;42.62
63339;BME280;47485;51.378;-1.342;2022-11-06T08:55:31;98887.69;;;6.30;44.95
63339;BME280;47485;51.378;-1.342;2022-11-06T08:57:58;98884.15;;;9.57;40.02
63339;BME280;47485;51.378;-1.342;2022-11-06T09:00:25;98891.28;;;11.39;38.88
63339;BME280;47485;51.378;-1.342;2022-11-06T09:02:56;98885.02;;;9.07;42.11
63339;BME280;47485;51.378;-1.342;2022-11-06T09:05:23;98886.33;;;10.93;40.17
63339;BME280;47485;51.378;-1.342;2022-11-06T09:07:50;98888.51;;;8.50;41.39
63339;BME280;47485;51.378;-1.342;2022-11-06T09:10:16;98882.00;;;10.18;39.48
63339;BME280;47485;51.378;-1.342;2022-11-06T09:12:43;98878.99;;;8.66;40.23
63339;BME280;47485;51.378;-1.342;2022-11-06T09:15:10;98874.93;;;6.79;41.91
63339;BME280;47485;51.378;-1.342;2022-11-06T09:17:41;98875.53;;;10.22;39.41
63339;BME280;47485;51.378;-1.342;2022-11-06T09:20:08;98878.56;;;7.59;41.57
63339;BME280;47485;51.378;-1.342;2022-11-06T09:22:35;98883.85;;;9.65;40.65
63339;BME280;47485;51.378;-1.342;2022-11-06T09:25:03;98887.67;;;8.88;41.71
63339;BME280;47485;51.378;-1.342;2022-11-06T09:27:31;98879.78;;;9.67;39.88
63339;BME280;47485;51.378;-1.342;2022-11-06T09:29:57;98872.96;;;6.52;44.40
63339;BME280;47485;51.378;-1.342;2022-11-06T09:32:24;98858.28;;;10.53;39.33
63339;BME280;47485;51.378;-1.342;2022-11-06T09:34:51;98843.26;;;8.35;41.96
63339;BME280;47485;51.378;-1.342;2022-11-06T09:37:17;98836.83;;;9.56;40.58
63339;BME280;47485;51.378;-1.342;2022-11-06T09:39:44;98827.24;;;6.94;44.10
63339;BME280;47485;51.378;-1.342;2022-11-06T09:42:22;98814.06;;;9.24;40.18
63339;BME280;47485;51.378;-1.342;2022-11-06T09:44:59;98825.39;;;11.42;38.86
63339;BME280;47485;51.378;-1.342;2022-11-06T09:47:33;98816.57;;;9.28;40.85
63339;BME280;47485;51.378;-1.342;2022-11-06T09:50:09;98816.80;;;7.74;42.94
63339;BME280;47485;51.378;-1.342;2022-11-06T09:52:41;98805.62;;;8.04;41.53
63339;BME280;47485;51.378;-1.342;2022-11-06T09:55:15;98819.07;;;10.12;40.17
63339;BME280;47485;51.378;-1.342;2022-11-06T09:57:46;98827.34;;;10.73;38.66
63339;BME280;47485;51.378;-1.342;2022-11-06T10:00:15;98826.96;;;10.23;38.70
63339;BME280;47485;51.378;-1.342;2022-11-06T10:02:47;98819.53;;;12.99;36.35
63339;BME280;47485;51.378;-1.342;2022-11-06T10:05:20;98824.69;;;12.61;37.26
63339;BME280;47485;51.378;-1.342;2022-11-06T10:07:51;98823.60;;;10.41;39.69
63339;BME280;47485;51.378;-1.342;2022-11-06T10:10:25;98808.75;;;9.45;41.11
63339;BME280;47485;51.378;-1.342;2022-11-06T10:13:10;98804.50;;;10.66;39.90
63339;BME280;47485;51.378;-1.342;2022-11-06T10:15:44;98804.32;;;9.34;40.34
63339;BME280;47485;51.378;-1.342;2022-11-06T10:18:21;98799.25;;;9.36;39.42
63339;BME280;47485;51.378;-1.342;2022-11-06T10:20:52;98801.23;;;12.41;36.59
63339;BME280;47485;51.378;-1.342;2022-11-06T10:23:27;98801.12;;;10.38;40.10
63339;BME280;47485;51.378;-1.342;2022-11-06T10:26:04;98802.06;;;12.53;37.75
63339;BME280;47485;51.378;-1.342;2022-11-06T10:28:46;98796.50;;;11.32;37.87
63339;BME280;47485;51.378;-1.342;2022-11-06T10:31:24;98799.11;;;12.67;36.18
63339;BME280;47485;51.378;-1.342;2022-11-06T10:33:57;98796.87;;;11.28;38.63
63339;BME280;47485;51.378;-1.342;2022-11-06T10:36:30;98800.94;;;9.00;40.81
63339;BME280;47485;51.378;-1.342;2022-11-06T10:39:02;98796.85;;;9.17;41.84
63339;BME280;47485;51.378;-1.342;2022-11-06T10:41:33;98800.79;;;10.23;43.53
63339;BME280;47485;51.378;-1.342;2022-11-06T10:44:03;98798.47;;;9.00;44.85
63339;BME280;47485;51.378;-1.342;2022-11-06T10:46:35;98791.24;;;8.79;42.24
63339;BME280;47485;51.378;-1.342;2022-11-06T10:49:08;98785.98;;;10.23;40.83
63339;BME280;47485;51.378;-1.342;2022-11-06T10:51:50;98786.78;;;6.24;43.55
63339;BME280;47485;51.378;-1.342;2022-11-06T10:54:34;98781.28;;;10.35;40.08
63339;BME280;47485;51.378;-1.342;2022-11-06T10:57:14;98771.38;;;7.60;42.96
63339;BME280;47485;51.378;-1.342;2022-11-06T10:59:47;98773.57;;;10.94;38.27
63339;BME280;47485;51.378;-1.342;2022-11-06T11:02:23;98763.87;;;12.56;36.04
63339;BME280;47485;51.378;-1.342;2022-11-06T11:04:51;98761.84;;;9.82;37.41
63339;BME280;47485;51.378;-1.342;2022-11-06T11:07:18;98761.39;;;11.70;37.34
63339;BME280;47485;51.378;-1.342;2022-11-06T11:09:45;98754.60;;;10.68;36.77
63339;BME280;47485;51.378;-1.342;2022-11-06T11:12:20;98755.08;;;9.59;38.21
63339;BME280;47485;51.378;-1.342;2022-11-06T11:15:04;98757.13;;;10.71;37.21
63339;BME280;47485;51.378;-1.342;2022-11-06T11:17:32;98737.54;;;11.32;36.42
63339;BME280;47485;51.378;-1.342;2022-11-06T11:19:59;98739.54;;;11.51;35.77
63339;BME280;47485;51.378;-1.342;2022-11-06T11:22:25;98739.25;;;9.37;39.81
63339;BME280;47485;51.378;-1.342;2022-11-06T11:25:01;98739.14;;;10.46;38.54
63339;BME280;47485;51.378;-1.342;2022-11-06T11:27:31;98737.80;;;8.83;41.71
63339;BME280;47485;51.378;-1.342;2022-11-06T11:30:03;98731.98;;;4.16;46.38
63339;BME280;47485;51.378;-1.342;2022-11-06T11:32:31;98722.06;;;7.85;42.88
63339;BME280;47485;51.378;-1.342;2022-11-06T11:34:59;98712.67;;;9.06;40.36
63339;BME280;47485;51.378;-1.342;2022-11-06T11:37:28;98705.41;;;7.00;45.09
63339;BME280;47485;51.378;-1.342;2022-11-06T11:40:17;98705.94;;;7.15;44.44
63339;BME280;47485;51.378;-1.342;2022-11-06T11:42:43;98691.95;;;10.02;40.96
63339;BME280;47485;51.378;-1.342;2022-11-06T11:45:15;98684.52;;;10.22;40.70
63339;BME280;47485;51.378;-1.342;2022-11-06T11:47:44;98684.01;;;8.46;41.78
63339;BME280;47485;51.378;-1.342;2022-11-06T11:50:27;98684.83;;;8.25;41.41
63339;BME280;47485;51.378;-1.342;2022-11-06T11:52:58;98673.62;;;7.64;43.08
63339;BME280;47485;51.378;-1.342;2022-11-06T11:55:27;98668.04;;;9.96;40.76
63339;BME280;47485;51.378;-1.342;2022-11-06T11:57:57;98663.61;;;9.95;41.39
63339;BME280;47485;51.378;-1.342;2022-11-06T12:00:25;98652.64;;;5.87;45.76
63339;BME280;47485;51.378;-1.342;2022-11-06T12:02:55;98646.08;;;9.50;42.74
63339;BME280;47485;51.378;-1.342;2022-11-06T12:05:27;98638.78;;;6.50;44.42
63339;BME280;47485;51.378;-1.342;2022-11-06T12:07:56;98630.31;;;8.64;40.90
63339;BME280;47485;51.378;-1.342;2022-11-06T12:10:27;98625.34;;;6.03;43.72
63339;BME280;47485;51.378;-1.342;2022-11-06T12:12:56;98617.81;;;8.33;41.28
63339;BME280;47485;51.378;-1.342;2022-11-06T12:15:26;98621.61;;;7.94;41.55
63339;BME280;47485;51.378;-1.342;2022-11-06T12:17:58;98619.58;;;8.70;41.63
63339;BME280;47485;51.378;-1.342;2022-11-06T12:20:34;98613.73;;;7.06;42.58
63339;BME280;47485;51.378;-1.342;2022-11-06T12:23:03;98608.89;;;8.40;43.02
63339;BME280;47485;51.378;-1.342;2022-11-06T12:25:35;98600.27;;;7.36;41.94
63339;BME280;47485;51.378;-1.342;2022-11-06T12:28:11;98598.38;;;11.10;39.03
63339;BME280;47485;51.378;-1.342;2022-11-06T12:30:41;98574.08;;;5.88;45.21
63339;BME280;47485;51.378;-1.342;2022-11-06T12:33:13;98579.30;;;6.18;44.33
63339;BME280;47485;51.378;-1.342;2022-11-06T12:35:45;98580.29;;;9.90;39.79
63339;BME280;47485;51.378;-1.342;2022-11-06T12:38:19;98584.02;;;12.60;38.81
63339;BME280;47485;51.378;-1.342;2022-11-06T12:40:49;98591.69;;;8.81;41.85
63339;BME280;47485;51.378;-1.342;2022-11-06T12:43:26;98619.68;;;6.08;51.08
63339;BME280;47485;51.378;-1.342;2022-11-06T12:46:09;98616.68;;;7.73;49.02
63339;BME280;47485;51.378;-1.342;2022-11-06T12:48:53;98617.86;;;8.14;50.60
63339;BME280;47485;51.378;-1.342;2022-11-06T12:51:31;98612.87;;;5.82;55.03
63339;BME280;47485;51.378;-1.342;2022-11-06T12:54:14;98624.27;;;4.82;56.86
63339;BME280;47485;51.378;-1.342;2022-11-06T12:56:53;98603.75;;;4.80;55.97
63339;BME280;47485;51.378;-1.342;2022-11-06T12:59:32;98602.70;;;4.73;57.43
63339;BME280;47485;51.378;-1.342;2022-11-06T13:02:15;98624.86;;;4.68;57.23
63339;BME280;47485;51.378;-1.342;2022-11-06T13:04:51;98621.45;;;4.29;56.87
63339;BME280;47485;51.378;-1.342;2022-11-06T13:08:04;98572.61;;;4.29;55.20
63339;BME280;47485;51.378;-1.342;2022-11-06T13:10:46;98579.72;;;5.20;52.49